createdAt,value
2023-03-17T00:00:29.662Z,0.00
2023-03-17T00:01:29.327Z,0.00
2023-03-17T00:02:29.289Z,0.00
2023-03-17T00:03:29.335Z,0.00
2023-03-17T00:04:29.281Z,0.00
2023-03-17T00:05:29.233Z,0.00
2023-03-17T00:06:29.241Z,0.00
2023-03-17T00:07:29.211Z,0.00
2023-03-17T00:08:29.255Z,0.00
2023-03-17T00:09:29.232Z,0.00
2023-03-17T00:10:29.403Z,0.00
2023-03-17T00:11:29.194Z,0.00
2023-03-17T00:12:29.157Z,0.00
2023-03-17T00:13:29.169Z,0.00
2023-03-17T00:14:29.166Z,0.00
2023-03-17T00:15:29.145Z,0.00
2023-03-17T00:16:29.144Z,0.00
2023-03-17T00:17:29.101Z,0.00
2023-03-17T00:18:29.116Z,0.00
2023-03-17T00:19:29.114Z,0.00
2023-03-17T00:20:29.372Z,0.00
2023-03-17T00:21:29.060Z,0.00
2023-03-17T00:22:29.077Z,0.00
2023-03-17T00:23:29.065Z,0.00
2023-03-17T00:24:29.047Z,0.00
2023-03-17T00:25:29.035Z,0.00
2023-03-17T00:26:29.051Z,0.00
2023-03-17T00:27:29.016Z,0.00
2023-03-17T00:28:29.008Z,0.00
2023-03-17T00:29:29.236Z,0.00
2023-03-17T00:30:29.304Z,0.00
2023-03-17T00:31:28.980Z,0.00
2023-03-17T00:32:28.978Z,0.00
2023-03-17T00:33:28.944Z,0.00
2023-03-17T00:34:28.962Z,0.00
2023-03-17T00:35:28.969Z,0.00
2023-03-17T00:36:28.913Z,0.00
2023-03-17T00:37:28.882Z,0.00
2023-03-17T00:38:28.897Z,0.00
2023-03-17T00:39:28.884Z,0.00
2023-03-17T00:40:29.259Z,0.00
2023-03-17T00:41:28.850Z,0.00
2023-03-17T00:42:28.870Z,0.00
2023-03-17T00:43:30.646Z,0.00
2023-03-17T00:44:28.830Z,0.00
2023-03-17T00:45:28.806Z,0.00
2023-03-17T00:46:28.939Z,0.00
2023-03-17T00:47:28.833Z,0.00
2023-03-17T00:48:28.788Z,0.00
2023-03-17T00:49:28.820Z,0.00
2023-03-17T00:50:29.068Z,0.00
2023-03-17T00:51:28.774Z,0.00
2023-03-17T00:52:28.743Z,0.00
2023-03-17T00:53:28.744Z,0.00
2023-03-17T00:54:28.736Z,0.00
2023-03-17T00:55:28.725Z,0.00
2023-03-17T00:56:28.710Z,0.00
2023-03-17T00:57:28.731Z,0.00
2023-03-17T00:58:28.763Z,0.00
2023-03-17T00:59:28.695Z,0.00
2023-03-17T01:00:29.046Z,0.00
2023-03-17T01:01:28.649Z,0.00
2023-03-17T01:02:28.699Z,0.00
2023-03-17T01:03:28.629Z,0.00
2023-03-17T01:04:28.626Z,0.00
2023-03-17T01:05:28.622Z,0.00
2023-03-17T01:06:28.567Z,0.00
2023-03-17T01:07:28.581Z,0.00
2023-03-17T01:08:28.560Z,0.00
2023-03-17T01:09:28.632Z,0.00
2023-03-17T01:10:28.831Z,0.00
2023-03-17T01:11:28.550Z,0.00
2023-03-17T01:12:28.506Z,0.00
2023-03-17T01:13:28.523Z,0.00
2023-03-17T01:14:28.492Z,0.00
2023-03-17T01:15:28.502Z,0.00
2023-03-17T01:16:28.680Z,0.00
2023-03-17T01:17:28.517Z,0.00
2023-03-17T01:18:28.505Z,0.00
2023-03-17T01:19:28.458Z,0.00
2023-03-17T01:20:28.791Z,0.00
2023-03-17T01:21:28.454Z,0.00
2023-03-17T01:22:28.456Z,0.00
2023-03-17T01:23:28.434Z,0.00
2023-03-17T01:24:28.414Z,0.00
2023-03-17T01:25:28.449Z,0.00
2023-03-17T01:26:28.370Z,0.00
2023-03-17T01:27:28.376Z,0.00
2023-03-17T01:28:28.399Z,0.00
2023-03-17T01:29:28.351Z,0.00
2023-03-17T01:30:28.877Z,0.00
2023-03-17T01:31:28.905Z,0.00
2023-03-17T01:32:28.362Z,0.00
2023-03-17T01:33:28.320Z,0.00
2023-03-17T01:34:28.287Z,0.00
2023-03-17T01:35:28.281Z,0.00
2023-03-17T01:36:28.254Z,0.00
2023-03-17T01:37:28.259Z,0.00
2023-03-17T01:38:28.241Z,0.00
2023-03-17T01:39:28.229Z,0.00
2023-03-17T01:40:28.563Z,0.00
2023-03-17T01:41:28.218Z,0.00
2023-03-17T01:42:28.199Z,0.00
2023-03-17T01:43:28.230Z,0.00
2023-03-17T01:44:28.166Z,0.00
2023-03-17T01:45:28.181Z,0.00
2023-03-17T01:46:28.178Z,0.00
2023-03-17T01:47:28.150Z,0.00
2023-03-17T01:48:28.145Z,0.00
2023-03-17T01:49:28.117Z,0.00
2023-03-17T01:50:28.434Z,0.00
2023-03-17T01:51:28.130Z,0.00
2023-03-17T01:52:28.087Z,0.00
2023-03-17T01:53:28.101Z,0.00
2023-03-17T01:54:28.056Z,0.00
2023-03-17T01:55:28.068Z,0.00
2023-03-17T01:56:28.064Z,0.00
2023-03-17T01:57:28.104Z,0.00
2023-03-17T01:58:28.032Z,0.00
2023-03-17T01:59:28.049Z,0.00
2023-03-17T02:00:28.467Z,0.00
2023-03-17T02:01:28.066Z,0.00
2023-03-17T02:02:28.070Z,0.00
2023-03-17T02:03:27.988Z,0.00
2023-03-17T02:04:27.999Z,0.00
2023-03-17T02:05:27.994Z,0.00
2023-03-17T02:06:27.937Z,0.00
2023-03-17T02:07:27.958Z,0.00
2023-03-17T02:08:27.921Z,0.00
2023-03-17T02:09:27.909Z,0.00
2023-03-17T02:10:28.129Z,0.00
2023-03-17T02:11:27.919Z,0.00
2023-03-17T02:12:27.869Z,0.00
2023-03-17T02:13:27.873Z,0.00
2023-03-17T02:14:27.828Z,0.00
2023-03-17T02:15:27.875Z,0.00
2023-03-17T02:16:27.860Z,0.00
2023-03-17T02:17:27.824Z,0.00
2023-03-17T02:18:27.809Z,0.00
2023-03-17T02:19:27.789Z,0.00
2023-03-17T02:20:28.123Z,0.00
2023-03-17T02:21:27.816Z,0.00
2023-03-17T02:22:27.760Z,0.00
2023-03-17T02:23:27.764Z,0.00
2023-03-17T02:24:27.747Z,0.00
2023-03-17T02:25:27.775Z,0.00
2023-03-17T02:26:27.730Z,0.00
2023-03-17T02:27:27.732Z,0.00
2023-03-17T02:28:27.720Z,0.00
2023-03-17T02:29:27.809Z,0.00
2023-03-17T02:30:27.854Z,0.00
2023-03-17T02:31:28.130Z,0.00
2023-03-17T02:32:27.677Z,0.00
2023-03-17T02:33:27.773Z,0.00
2023-03-17T02:34:27.632Z,0.00
2023-03-17T02:35:27.643Z,0.00
2023-03-17T02:36:27.650Z,0.00
2023-03-17T02:37:27.635Z,0.00
2023-03-17T02:38:27.591Z,0.00
2023-03-17T02:39:27.622Z,0.00
2023-03-17T02:40:27.602Z,0.00
2023-03-17T02:41:27.590Z,0.00
2023-03-17T02:42:27.573Z,0.00
2023-03-17T02:43:27.547Z,0.00
2023-03-17T02:44:27.519Z,0.00
2023-03-17T02:45:27.558Z,0.00
2023-03-17T02:46:27.704Z,0.00
2023-03-17T02:47:27.541Z,0.00
2023-03-17T02:48:27.488Z,0.00
2023-03-17T02:49:27.484Z,0.00
2023-03-17T02:50:27.852Z,0.00
2023-03-17T02:51:27.455Z,0.00
2023-03-17T02:52:27.468Z,0.00
2023-03-17T02:53:27.447Z,0.00
2023-03-17T03:01:22.658Z,0.00
2023-03-17T03:02:22.651Z,0.00
2023-03-17T03:05:41.754Z,0.00
2023-03-17T03:06:41.729Z,0.00
2023-03-17T03:07:41.692Z,0.00
2023-03-17T03:08:41.705Z,0.00
2023-03-17T03:09:41.690Z,0.00
2023-03-17T03:10:41.691Z,0.00
2023-03-17T03:11:41.656Z,0.00
2023-03-17T03:12:41.665Z,0.00
2023-03-17T03:13:41.620Z,0.00
2023-03-17T03:14:41.630Z,0.00
2023-03-17T03:15:41.663Z,0.00
2023-03-17T03:16:41.624Z,0.00
2023-03-17T03:17:41.596Z,0.00
2023-03-17T03:18:41.589Z,0.00
2023-03-17T03:19:41.579Z,0.00
2023-03-17T03:20:41.544Z,0.00
2023-03-17T03:21:41.568Z,0.00
2023-03-17T03:22:41.532Z,0.00
2023-03-17T03:23:41.564Z,0.00
2023-03-17T03:24:41.518Z,0.00
2023-03-17T03:25:41.519Z,0.00
2023-03-17T03:26:41.497Z,0.00
2023-03-17T03:27:41.525Z,0.00
2023-03-17T03:28:41.465Z,0.00
2023-03-17T03:29:41.529Z,0.00
2023-03-17T03:30:41.450Z,0.00
2023-03-17T03:31:41.451Z,0.00
2023-03-17T03:32:41.450Z,0.00
2023-03-17T03:33:41.437Z,0.00
2023-03-17T03:34:41.385Z,0.00
2023-03-17T03:35:41.452Z,0.00
2023-03-17T03:36:41.583Z,0.00
2023-03-17T03:37:41.398Z,0.00
2023-03-17T03:38:41.370Z,0.00
2023-03-17T03:39:41.356Z,0.00
2023-03-17T03:40:41.348Z,0.00
2023-03-17T03:41:41.338Z,0.00
2023-03-17T03:42:41.316Z,0.00
2023-03-17T03:43:41.340Z,0.00
2023-03-17T03:44:41.295Z,0.00
2023-03-17T03:45:41.328Z,0.00
2023-03-17T03:46:41.290Z,0.00
2023-03-17T03:47:41.281Z,0.00
2023-03-17T03:48:41.242Z,0.00
2023-03-17T03:49:41.282Z,0.00
2023-03-17T03:50:41.240Z,0.00
2023-03-17T03:51:41.263Z,0.00
2023-03-17T03:52:41.213Z,0.00
2023-03-17T03:53:41.220Z,0.00
2023-03-17T03:54:41.191Z,0.00
2023-03-17T03:55:41.241Z,0.00
2023-03-17T03:56:41.164Z,0.00
2023-03-17T03:57:41.210Z,0.00
2023-03-17T03:58:41.142Z,0.00
2023-03-17T03:59:41.153Z,0.00
2023-03-17T04:00:41.127Z,0.00
2023-03-17T04:01:41.125Z,0.00
2023-03-17T04:02:41.130Z,0.00
2023-03-17T04:03:41.119Z,0.00
2023-03-17T04:04:41.191Z,0.00
2023-03-17T04:05:41.697Z,0.00
2023-03-17T04:06:41.202Z,0.00
2023-03-17T04:07:41.388Z,0.00
2023-03-17T04:08:41.235Z,0.00
2023-03-17T04:09:41.106Z,0.00
2023-03-17T04:10:41.042Z,0.00
2023-03-17T04:11:41.023Z,0.00
2023-03-17T04:12:40.983Z,0.00
2023-03-17T04:13:41.069Z,0.00
2023-03-17T04:14:40.988Z,0.00
2023-03-17T04:15:40.953Z,0.00
2023-03-17T04:16:43.302Z,0.00
2023-03-17T04:17:40.938Z,0.00
2023-03-17T04:18:40.979Z,0.00
2023-03-17T04:19:40.928Z,0.00
2023-03-17T04:20:40.924Z,0.00
2023-03-17T04:21:40.901Z,0.00
2023-03-17T04:22:40.884Z,0.00
2023-03-17T04:23:40.889Z,0.00
2023-03-17T04:24:40.897Z,0.00
2023-03-17T04:25:40.862Z,0.00
2023-03-17T04:26:40.833Z,0.00
2023-03-17T04:27:40.861Z,0.00
2023-03-17T04:28:40.837Z,0.00
2023-03-17T04:29:40.819Z,0.00
2023-03-17T04:30:40.825Z,0.00
2023-03-17T04:31:40.886Z,0.00
2023-03-17T04:32:40.820Z,0.00
2023-03-17T04:33:40.834Z,0.00
2023-03-17T04:34:40.748Z,0.00
2023-03-17T04:35:40.826Z,0.00
2023-03-17T04:36:40.720Z,0.00
2023-03-17T04:37:40.773Z,0.00
2023-03-17T04:38:40.883Z,0.00
2023-03-17T04:39:40.703Z,0.00
2023-03-17T04:40:40.723Z,0.00
2023-03-17T04:41:40.706Z,0.00
2023-03-17T04:42:40.704Z,0.00
2023-03-17T04:43:40.659Z,0.00
2023-03-17T04:44:40.652Z,0.00
2023-03-17T04:45:40.729Z,0.00
2023-03-17T04:46:40.613Z,0.00
2023-03-17T04:47:40.641Z,0.00
2023-03-17T04:48:40.590Z,0.00
2023-03-17T04:49:40.615Z,0.00
2023-03-17T04:50:40.598Z,0.00
2023-03-17T04:51:40.570Z,0.00
2023-03-17T04:52:40.550Z,0.00
2023-03-17T04:53:40.564Z,0.00
2023-03-17T04:54:40.598Z,0.00
2023-03-17T04:55:40.525Z,0.00
2023-03-17T04:56:40.534Z,0.00
2023-03-17T04:57:40.524Z,0.00
2023-03-17T04:58:40.496Z,0.00
2023-03-17T04:59:40.495Z,0.00
2023-03-17T05:00:40.518Z,0.00
2023-03-17T05:01:40.470Z,0.00
2023-03-17T05:02:40.491Z,0.00
2023-03-17T05:03:40.495Z,0.00
2023-03-17T05:04:40.468Z,0.00
2023-03-17T05:05:40.424Z,0.00
2023-03-17T05:06:40.417Z,0.00
2023-03-17T05:07:40.410Z,4.00
2023-03-17T05:08:40.400Z,4.00
2023-03-17T05:09:40.544Z,0.00
2023-03-17T05:10:40.380Z,4.00
2023-03-17T05:11:40.381Z,4.00
2023-03-17T05:12:40.448Z,4.00
2023-03-17T05:13:40.356Z,4.00
2023-03-17T05:14:40.340Z,8.00
2023-03-17T05:15:40.329Z,12.00
2023-03-17T05:16:40.469Z,12.00
2023-03-17T05:17:40.313Z,16.00
2023-03-17T05:18:40.335Z,16.00
2023-03-17T05:19:40.261Z,20.00
2023-03-17T05:20:40.281Z,24.00
2023-03-17T05:21:40.263Z,28.00
2023-03-17T05:22:40.217Z,32.00
2023-03-17T05:23:53.321Z,40.00
2023-03-17T05:26:57.167Z,68.00
2023-03-17T05:27:56.319Z,76.00
2023-03-17T05:28:58.146Z,88.00
2023-03-17T05:29:56.293Z,100.00
2023-03-17T05:30:56.329Z,112.00
2023-03-17T05:31:56.276Z,128.00
2023-03-17T05:32:56.311Z,140.00
2023-03-17T05:33:56.268Z,160.00
2023-03-17T05:34:56.240Z,176.00
2023-03-17T05:35:56.284Z,196.00
2023-03-17T05:36:56.272Z,216.00
2023-03-17T05:37:56.206Z,244.00
2023-03-17T05:38:56.200Z,264.00
2023-03-17T05:39:56.605Z,292.00
2023-03-17T05:40:56.180Z,320.00
2023-03-17T05:41:56.197Z,352.00
2023-03-17T05:42:56.173Z,384.00
2023-03-17T05:43:56.201Z,420.00
2023-03-17T05:44:56.154Z,460.00
2023-03-17T05:45:56.168Z,500.00
2023-03-17T05:46:56.137Z,544.00
2023-03-17T05:47:56.113Z,596.00
2023-03-17T05:48:56.118Z,648.00
2023-03-17T05:49:56.096Z,708.00
2023-03-17T05:50:56.112Z,768.00
2023-03-17T05:51:56.076Z,832.00
2023-03-17T05:52:56.060Z,900.00
2023-03-17T05:53:56.057Z,968.00
2023-03-17T05:54:56.023Z,1036.00
2023-03-17T05:55:56.023Z,1116.00
2023-03-17T05:56:56.072Z,1200.00
2023-03-17T05:57:56.006Z,1292.00
2023-03-17T05:58:56.012Z,1384.00
2023-03-17T05:59:56.002Z,1468.00
2023-03-17T06:00:55.990Z,1556.00
2023-03-17T06:01:55.959Z,1636.00
2023-03-17T06:02:55.968Z,1716.00
2023-03-17T06:03:55.960Z,1804.00
2023-03-17T06:04:55.934Z,1892.00
2023-03-17T06:05:55.928Z,1976.00
2023-03-17T06:06:55.914Z,2048.00
2023-03-17T06:07:56.661Z,2144.00
2023-03-17T06:08:55.899Z,2296.00
2023-03-17T06:09:55.885Z,2380.00
2023-03-17T06:10:55.935Z,2460.00
2023-03-17T06:11:55.861Z,2524.00
2023-03-17T06:12:55.860Z,2564.00
2023-03-17T06:13:55.839Z,2648.00
2023-03-17T06:14:55.829Z,2676.00
2023-03-17T06:15:55.842Z,2700.00
2023-03-17T06:16:55.803Z,2772.00
2023-03-17T06:17:55.809Z,2816.00
2023-03-17T06:18:55.801Z,2868.00
2023-03-17T06:19:55.764Z,2960.00
2023-03-17T06:20:55.777Z,3024.00
2023-03-17T06:21:55.754Z,3072.00
2023-03-17T06:23:04.385Z,3100.00
2023-03-17T06:23:56.744Z,3144.00
2023-03-17T06:24:56.154Z,3144.00
2023-03-17T06:25:55.775Z,3120.00
2023-03-17T06:26:55.702Z,3172.00
2023-03-17T06:27:55.701Z,3220.00
2023-03-17T06:28:55.697Z,3268.00
2023-03-17T06:29:55.669Z,3336.00
2023-03-17T06:30:55.733Z,3420.00
2023-03-17T06:31:56.984Z,3480.00
2023-03-17T06:32:55.746Z,3528.00
2023-03-17T06:33:55.630Z,3548.00
2023-03-17T06:34:55.632Z,3616.00
2023-03-17T06:35:55.627Z,3716.00
2023-03-17T06:36:55.607Z,3820.00
2023-03-17T06:37:55.574Z,3984.00
2023-03-17T06:38:55.585Z,4136.00
2023-03-17T06:39:55.558Z,4164.00
2023-03-17T06:40:55.594Z,4220.00
2023-03-17T06:41:55.616Z,4316.00
2023-03-17T06:42:55.538Z,4392.00
2023-03-17T06:43:55.513Z,4604.00
2023-03-17T06:44:55.529Z,4680.00
2023-03-17T06:45:55.468Z,4548.00
2023-03-17T06:46:55.512Z,4492.00
2023-03-17T06:47:55.462Z,4812.00
2023-03-17T06:48:55.481Z,4968.00
2023-03-17T06:49:55.466Z,5020.00
2023-03-17T06:50:55.447Z,4996.00
2023-03-17T06:51:55.452Z,5092.00
2023-03-17T06:52:55.427Z,5184.00
2023-03-17T06:53:55.444Z,4884.00
2023-03-17T06:54:55.415Z,5064.00
2023-03-17T06:55:55.479Z,4884.00
2023-03-17T06:56:56.247Z,4916.00
2023-03-17T06:57:55.365Z,4756.00
2023-03-17T06:58:55.362Z,4692.00
2023-03-17T06:59:55.367Z,5304.00
2023-03-17T07:00:55.318Z,4448.00
2023-03-17T07:01:55.364Z,4812.00
2023-03-17T07:02:55.336Z,4816.00
2023-03-17T07:03:55.312Z,5032.00
2023-03-17T07:04:55.353Z,5320.00
2023-03-17T07:05:55.310Z,5048.00
2023-03-17T07:06:55.230Z,5612.00
2023-03-17T07:07:55.268Z,6112.00
2023-03-17T07:08:55.223Z,6096.00
2023-03-17T07:09:55.246Z,6068.00
2023-03-17T07:10:55.227Z,6196.00
2023-03-17T07:11:55.219Z,6448.00
2023-03-17T07:12:55.248Z,6544.00
2023-03-17T07:13:55.211Z,6120.00
2023-03-17T07:14:55.208Z,6100.00
2023-03-17T07:15:55.505Z,5856.00
2023-03-17T07:16:55.143Z,6060.00
2023-03-17T07:17:55.196Z,5960.00
2023-03-17T07:18:55.128Z,5964.00
2023-03-17T07:19:55.154Z,6164.00
2023-03-17T07:20:55.148Z,6688.00
2023-03-17T07:21:55.141Z,6488.00
2023-03-17T07:22:55.090Z,6556.00
2023-03-17T07:23:55.083Z,6864.00
2023-03-17T07:24:55.073Z,6260.00
2023-03-17T07:25:55.082Z,6064.00
2023-03-17T07:26:55.052Z,6240.00
2023-03-17T07:27:55.047Z,6940.00
2023-03-17T07:28:55.058Z,6816.00
2023-03-17T07:29:55.010Z,6424.00
2023-03-17T07:30:54.996Z,6384.00
2023-03-17T07:31:55.115Z,6552.00
2023-03-17T07:32:55.090Z,7100.00
2023-03-17T07:33:57.307Z,7248.00
2023-03-17T07:34:55.043Z,6760.00
2023-03-17T07:35:55.025Z,6896.00
2023-03-17T07:36:54.987Z,7056.00
2023-03-17T07:37:54.935Z,7108.00
2023-03-17T07:38:54.905Z,7188.00
2023-03-17T07:39:54.919Z,7780.00
2023-03-17T07:40:54.911Z,7836.00
2023-03-17T07:41:54.889Z,7456.00
2023-03-17T07:42:54.910Z,6696.00
2023-03-17T07:43:54.949Z,6544.00
2023-03-17T07:44:54.852Z,7064.00
2023-03-17T07:45:54.854Z,7116.00
2023-03-17T07:46:54.837Z,7032.00
2023-03-17T07:47:54.827Z,6604.00
2023-03-17T07:48:54.809Z,6860.00
2023-03-17T07:49:54.832Z,7116.00
2023-03-17T07:50:54.779Z,7088.00
2023-03-17T07:51:54.771Z,6868.00
2023-03-17T07:52:54.763Z,7000.00
2023-03-17T07:53:54.755Z,7440.00
2023-03-17T07:54:54.746Z,6700.00
2023-03-17T07:55:54.763Z,7208.00
2023-03-17T07:56:54.704Z,7744.00
2023-03-17T07:57:54.779Z,8152.00
2023-03-17T07:58:54.680Z,8684.00
2023-03-17T07:59:54.697Z,8940.00
2023-03-17T08:00:54.694Z,9120.00
2023-03-17T08:01:54.716Z,8992.00
2023-03-17T08:03:08.954Z,8828.00
2023-03-17T08:03:55.693Z,9184.00
2023-03-17T08:04:54.673Z,9880.00
2023-03-17T08:05:54.642Z,10096.00
2023-03-17T08:06:54.688Z,10144.00
2023-03-17T08:07:54.598Z,10044.00
2023-03-17T08:08:54.622Z,9820.00
2023-03-17T08:09:54.591Z,9804.00
2023-03-17T08:10:54.576Z,9424.00
2023-03-17T08:11:54.602Z,8492.00
2023-03-17T08:12:54.550Z,8584.00
2023-03-17T08:13:54.529Z,9364.00
2023-03-17T08:14:54.694Z,8856.00
2023-03-17T08:15:54.504Z,9256.00
2023-03-17T08:16:54.523Z,9324.00
2023-03-17T08:17:54.485Z,8452.00
2023-03-17T08:18:54.488Z,8728.00
2023-03-17T08:19:55.046Z,8868.00
2023-03-17T08:20:54.453Z,9016.00
2023-03-17T08:21:54.464Z,8568.00
2023-03-17T08:22:54.474Z,9020.00
2023-03-17T08:23:54.435Z,8824.00
2023-03-17T08:24:54.450Z,8972.00
2023-03-17T08:25:54.416Z,9204.00
2023-03-17T08:26:54.390Z,9284.00
2023-03-17T08:27:54.380Z,9944.00
2023-03-17T08:28:54.393Z,9076.00
2023-03-17T08:29:54.373Z,9584.00
2023-03-17T08:30:54.479Z,9536.00
2023-03-17T08:31:54.453Z,8552.00
2023-03-17T08:32:54.435Z,8216.00
2023-03-17T08:33:54.343Z,8380.00
2023-03-17T08:34:54.320Z,8860.00
2023-03-17T08:35:54.331Z,8748.00
2023-03-17T08:36:54.278Z,8832.00
2023-03-17T08:37:56.186Z,8888.00
2023-03-17T08:38:54.310Z,9208.00
2023-03-17T08:39:54.255Z,9848.00
2023-03-17T08:40:54.250Z,9420.00
2023-03-17T08:41:54.239Z,10092.00
2023-03-17T08:42:54.228Z,10100.00
2023-03-17T08:43:54.207Z,9852.00
2023-03-17T08:44:54.197Z,9216.00
2023-03-17T08:45:54.844Z,9648.00
2023-03-17T08:46:54.170Z,10312.00
2023-03-17T08:47:54.171Z,10576.00
2023-03-17T08:48:54.161Z,10580.00
2023-03-17T08:49:54.132Z,10732.00
2023-03-17T08:50:54.124Z,10912.00
2023-03-17T08:51:54.132Z,11036.00
2023-03-17T08:52:54.102Z,10732.00
2023-03-17T08:53:54.119Z,9992.00
2023-03-17T08:54:54.084Z,10624.00
2023-03-17T08:55:54.095Z,10620.00
2023-03-17T08:56:54.078Z,10832.00
2023-03-17T08:57:54.072Z,10808.00
2023-03-17T08:58:54.037Z,11356.00
2023-03-17T08:59:54.042Z,11244.00
2023-03-17T09:00:54.014Z,11636.00
2023-03-17T09:01:54.056Z,10844.00
2023-03-17T09:02:54.027Z,11804.00
2023-03-17T09:03:54.031Z,11640.00
2023-03-17T09:04:53.977Z,11708.00
2023-03-17T09:05:53.965Z,11624.00
2023-03-17T09:07:02.888Z,11624.00
2023-03-17T09:07:55.016Z,11700.00
2023-03-17T09:08:53.911Z,11780.00
2023-03-17T09:09:53.957Z,11340.00
2023-03-17T09:10:53.935Z,12208.00
2023-03-17T09:11:53.925Z,11556.00
2023-03-17T09:12:53.909Z,11904.00
2023-03-17T09:13:53.875Z,11764.00
2023-03-17T09:14:53.858Z,11992.00
2023-03-17T09:15:53.888Z,11740.00
2023-03-17T09:16:53.917Z,12084.00
2023-03-17T09:17:53.822Z,12024.00
2023-03-17T09:18:53.803Z,12028.00
2023-03-17T09:19:53.818Z,12000.00
2023-03-17T09:20:53.786Z,11904.00
2023-03-17T09:21:53.803Z,11828.00
2023-03-17T09:22:53.767Z,11748.00
2023-03-17T09:23:53.787Z,11628.00
2023-03-17T09:24:53.823Z,12032.00
2023-03-17T09:25:53.752Z,12000.00
2023-03-17T09:26:53.738Z,11920.00
2023-03-17T09:27:53.730Z,11668.00
2023-03-17T09:28:53.705Z,11728.00
2023-03-17T09:29:53.696Z,11736.00
2023-03-17T09:30:53.781Z,11976.00
2023-03-17T09:31:53.694Z,11740.00
2023-03-17T09:32:53.716Z,12428.00
2023-03-17T09:33:53.658Z,12944.00
2023-03-17T09:34:53.623Z,12240.00
2023-03-17T09:35:53.688Z,12112.00
2023-03-17T09:36:53.598Z,13324.00
2023-03-17T09:37:53.616Z,13500.00
2023-03-17T09:38:53.600Z,13536.00
2023-03-17T09:39:53.590Z,13028.00
2023-03-17T09:40:53.573Z,13600.00
2023-03-17T09:41:53.577Z,13664.00
2023-03-17T09:42:53.559Z,13956.00
2023-03-17T09:43:53.550Z,13868.00
2023-03-17T09:44:53.528Z,13944.00
2023-03-17T09:45:53.544Z,14052.00
2023-03-17T09:46:53.524Z,13300.00
2023-03-17T09:47:53.621Z,13072.00
2023-03-17T09:48:53.484Z,12940.00
2023-03-17T09:49:53.489Z,13288.00
2023-03-17T09:50:53.500Z,14012.00
2023-03-17T09:51:53.475Z,14412.00
2023-03-17T09:52:53.446Z,13852.00
2023-03-17T09:53:53.465Z,14724.00
2023-03-17T09:54:53.401Z,15008.00
2023-03-17T09:55:53.440Z,14632.00
2023-03-17T09:56:53.411Z,15116.00
2023-03-17T09:57:53.390Z,15712.00
2023-03-17T09:58:53.382Z,16192.00
2023-03-17T09:59:53.361Z,16736.00
2023-03-17T10:00:53.356Z,21344.00
2023-03-17T10:01:53.388Z,20224.00
2023-03-17T10:02:53.328Z,22624.00
2023-03-17T10:03:53.332Z,25248.00
2023-03-17T10:04:53.342Z,20352.00
2023-03-17T10:05:53.312Z,16992.00
2023-03-17T10:06:53.276Z,15936.00
2023-03-17T10:07:53.307Z,15808.00
2023-03-17T10:08:53.257Z,16416.00
2023-03-17T10:09:53.254Z,16384.00
2023-03-17T10:10:53.240Z,15384.00
2023-03-17T10:11:53.228Z,16544.00
2023-03-17T10:12:53.230Z,16928.00
2023-03-17T10:13:53.227Z,16992.00
2023-03-17T10:14:53.208Z,16672.00
2023-03-17T10:15:53.232Z,16960.00
2023-03-17T10:16:53.158Z,17184.00
2023-03-17T10:17:53.174Z,17600.00
2023-03-17T10:18:53.247Z,17760.00
2023-03-17T10:19:53.162Z,17760.00
2023-03-17T10:20:53.137Z,16928.00
2023-03-17T10:21:53.132Z,16000.00
2023-03-17T10:22:53.109Z,16352.00
2023-03-17T10:23:53.116Z,16384.00
2023-03-17T10:24:53.106Z,16608.00
2023-03-17T10:25:53.116Z,17472.00
2023-03-17T10:26:53.095Z,17504.00
2023-03-17T10:27:53.069Z,17568.00
2023-03-17T10:28:53.033Z,17952.00
2023-03-17T10:29:53.040Z,17504.00
2023-03-17T10:30:53.024Z,18144.00
2023-03-17T10:31:53.061Z,18496.00
2023-03-17T10:32:53.041Z,18560.00
2023-03-17T10:33:53.013Z,18656.00
2023-03-17T10:34:52.977Z,19008.00
2023-03-17T10:35:53.023Z,19008.00
2023-03-17T10:36:52.947Z,19264.00
2023-03-17T10:38:04.403Z,19392.00
2023-03-17T10:38:53.926Z,20480.00
2023-03-17T10:39:52.925Z,21376.00
2023-03-17T10:40:52.900Z,21312.00
2023-03-17T10:41:52.901Z,21024.00
2023-03-17T10:42:52.870Z,19488.00
2023-03-17T10:43:52.869Z,20768.00
2023-03-17T10:44:52.849Z,20576.00
2023-03-17T10:45:52.881Z,20320.00
2023-03-17T10:46:52.907Z,20288.00
2023-03-17T10:47:52.826Z,20512.00
2023-03-17T10:48:52.822Z,22976.00
2023-03-17T10:49:53.437Z,24320.00
2023-03-17T10:50:54.312Z,26496.00
2023-03-17T10:51:52.829Z,25888.00
2023-03-17T10:52:52.794Z,26176.00
2023-03-17T10:53:52.781Z,23808.00
2023-03-17T10:54:52.752Z,28448.00
2023-03-17T10:55:53.725Z,26784.00
2023-03-17T10:56:52.768Z,31392.00
2023-03-17T10:57:52.726Z,29792.00
2023-03-17T10:58:52.707Z,31072.00
2023-03-17T10:59:52.774Z,34016.00
2023-03-17T11:00:52.754Z,34336.00
2023-03-17T11:01:52.681Z,42080.00
2023-03-17T11:02:52.652Z,43968.00
2023-03-17T11:03:52.705Z,44224.00
2023-03-17T11:04:52.651Z,27648.00
2023-03-17T11:05:52.641Z,24992.00
2023-03-17T11:06:52.643Z,24448.00
2023-03-17T11:07:52.635Z,28896.00
2023-03-17T11:08:52.612Z,29952.00
2023-03-17T11:09:52.612Z,38208.00
2023-03-17T11:10:52.587Z,35392.00
2023-03-17T11:11:52.586Z,32704.00
2023-03-17T11:12:52.568Z,32960.00
2023-03-17T11:13:52.559Z,30656.00
2023-03-17T11:14:52.547Z,28128.00
2023-03-17T11:15:52.541Z,33312.00
2023-03-17T11:16:52.585Z,36320.00
2023-03-17T11:17:52.497Z,40832.00
2023-03-17T11:18:52.509Z,37600.00
2023-03-17T11:19:52.484Z,43168.00
2023-03-17T11:20:52.553Z,54656.00
2023-03-17T11:21:52.459Z,57184.00
2023-03-17T11:22:52.472Z,49824.00
2023-03-17T11:23:52.460Z,50208.00
2023-03-17T11:24:52.451Z,46624.00
2023-03-17T11:25:52.450Z,53024.00
2023-03-17T11:26:52.442Z,56000.00
2023-03-17T11:27:52.387Z,52512.00
2023-03-17T11:28:52.373Z,46112.00
2023-03-17T11:29:52.358Z,50144.00
2023-03-17T11:30:52.392Z,43552.00
2023-03-17T11:31:52.392Z,40192.00
2023-03-17T11:32:53.351Z,47328.00
2023-03-17T11:33:52.322Z,42368.00
2023-03-17T11:34:52.344Z,45824.00
2023-03-17T11:35:52.322Z,47488.00
2023-03-17T11:36:52.308Z,47488.00
2023-03-17T11:37:52.275Z,36704.00
2023-03-17T11:38:52.300Z,56992.00
2023-03-17T11:39:52.280Z,52640.00
2023-03-17T11:40:52.269Z,50304.00
2023-03-17T11:41:52.243Z,54976.00
2023-03-17T11:42:52.238Z,40128.00
2023-03-17T11:43:52.234Z,42048.00
2023-03-17T11:44:52.234Z,47936.00
2023-03-17T11:45:52.218Z,43264.00
2023-03-17T11:46:52.211Z,36768.00
2023-03-17T11:47:52.228Z,38016.00
2023-03-17T11:48:52.234Z,35808.00
2023-03-17T11:49:52.160Z,38816.00
2023-03-17T11:50:52.160Z,44576.00
2023-03-17T11:51:52.210Z,44928.00
2023-03-17T11:52:52.143Z,42880.00
2023-03-17T11:53:52.132Z,47584.00
2023-03-17T11:54:54.102Z,53376.00
2023-03-17T11:55:52.096Z,50496.00
2023-03-17T11:56:52.094Z,46656.00
2023-03-17T11:57:52.059Z,38336.00
2023-03-17T11:58:52.079Z,41088.00
2023-03-17T11:59:52.043Z,50272.00
2023-03-17T12:00:52.055Z,53312.00
2023-03-17T12:01:52.027Z,57696.00
2023-03-17T12:02:52.037Z,54656.00
2023-03-17T12:03:52.141Z,45888.00
2023-03-17T12:04:52.034Z,51680.00
2023-03-17T12:05:51.979Z,29984.00
2023-03-17T12:06:51.983Z,39680.00
2023-03-17T12:07:51.955Z,42752.00
2023-03-17T12:08:51.945Z,48352.00
2023-03-17T12:09:51.961Z,57088.00
2023-03-17T12:10:51.927Z,54912.00
2023-03-17T12:11:51.915Z,52608.00
2023-03-17T12:12:51.912Z,47552.00
2023-03-17T12:13:51.893Z,43040.00
2023-03-17T12:14:51.894Z,41696.00
2023-03-17T12:15:51.889Z,47808.00
2023-03-17T12:16:51.875Z,42752.00
2023-03-17T12:17:51.843Z,43136.00
2023-03-17T12:18:51.837Z,36256.00
2023-03-17T12:19:51.830Z,32064.00
2023-03-17T12:20:51.830Z,32256.00
2023-03-17T12:21:51.800Z,29440.00
2023-03-17T12:22:51.852Z,27040.00
2023-03-17T12:23:51.791Z,26080.00
2023-03-17T12:24:51.784Z,23840.00
2023-03-17T12:25:51.774Z,24000.00
2023-03-17T12:26:51.763Z,25728.00
2023-03-17T12:27:51.739Z,25184.00
2023-03-17T12:28:51.746Z,25696.00
2023-03-17T12:29:51.734Z,25024.00
2023-03-17T12:30:51.776Z,24576.00
2023-03-17T12:31:51.688Z,23616.00
2023-03-17T12:32:51.730Z,24160.00
2023-03-17T12:33:51.685Z,25440.00
2023-03-17T12:34:51.672Z,26048.00
2023-03-17T12:35:51.672Z,29216.00
2023-03-17T12:36:51.663Z,29152.00
2023-03-17T12:37:51.624Z,31040.00
2023-03-17T12:38:51.648Z,29568.00